createdAt,value
2022-08-03T00:01:41.691Z,20.70
2022-08-03T00:04:09.394Z,20.70
2022-08-03T00:06:37.391Z,20.50
2022-08-03T00:09:07.554Z,20.40
2022-08-03T00:11:34.322Z,20.40
2022-08-03T00:14:01.573Z,20.30
2022-08-03T00:16:28.295Z,20.30
2022-08-03T00:18:55.299Z,20.40
2022-08-03T00:21:21.963Z,20.30
2022-08-03T00:23:51.323Z,20.40
2022-08-03T00:26:22.094Z,20.40
2022-08-03T00:28:49.899Z,20.60
2022-08-03T00:31:16.714Z,20.50
2022-08-03T00:33:58.156Z,20.60
2022-08-03T00:36:27.026Z,20.50
2022-08-03T00:38:53.695Z,20.40
2022-08-03T00:41:20.277Z,20.40
2022-08-03T00:43:47.644Z,20.20
2022-08-03T00:46:19.048Z,20.30
2022-08-03T00:48:49.337Z,20.20
2022-08-03T00:51:16.130Z,20.20
2022-08-03T00:53:43.433Z,20.20
2022-08-03T00:56:13.967Z,20.10
2022-08-03T00:58:41.017Z,20.10
2022-08-03T01:01:07.720Z,20.20
2022-08-03T01:03:34.698Z,20.00
2022-08-03T01:06:12.801Z,19.90
2022-08-03T01:09:17.997Z,19.90
2022-08-03T01:12:01.735Z,19.80
2022-08-03T01:14:38.220Z,19.60
2022-08-03T01:17:28.772Z,19.60
2022-08-03T01:20:11.684Z,19.60
2022-08-03T01:23:00.973Z,19.60
2022-08-03T01:25:59.135Z,19.60
2022-08-03T01:28:45.653Z,19.50
2022-08-03T01:31:15.539Z,19.30
2022-08-03T01:33:55.582Z,19.10
2022-08-03T01:36:33.835Z,19.00
2022-08-03T01:39:04.015Z,18.80
2022-08-03T01:41:38.753Z,18.60
2022-08-03T01:44:29.965Z,18.50
2022-08-03T01:47:01.145Z,18.50
2022-08-03T01:49:30.548Z,18.30
2022-08-03T01:52:04.468Z,18.40
2022-08-03T01:54:36.700Z,18.40
2022-08-03T01:57:04.574Z,18.40
2022-08-03T01:59:34.358Z,18.40
2022-08-03T02:02:31.777Z,18.30
2022-08-03T02:04:51.049Z,18.30
2022-08-03T02:07:18.987Z,18.10
2022-08-03T02:09:49.770Z,18.00
2022-08-03T02:12:17.585Z,18.10
2022-08-03T02:14:47.133Z,18.10
2022-08-03T02:17:15.155Z,18.00
2022-08-03T02:19:43.803Z,17.90
2022-08-03T02:22:12.731Z,17.90
2022-08-03T02:24:39.942Z,17.70
2022-08-03T02:27:15.671Z,17.70
2022-08-03T02:29:44.628Z,17.60
2022-08-03T02:32:16.401Z,17.50
2022-08-03T02:34:47.495Z,17.60
2022-08-03T02:37:18.022Z,17.60
2022-08-03T02:39:46.814Z,17.70
2022-08-03T02:42:15.560Z,17.80
2022-08-03T02:44:48.348Z,17.90
2022-08-03T02:47:17.561Z,17.70
2022-08-03T02:49:51.685Z,17.60
2022-08-03T02:52:23.152Z,17.70
2022-08-03T02:54:53.104Z,17.70
2022-08-03T02:57:21.611Z,17.60
2022-08-03T02:59:48.714Z,17.50
2022-08-03T03:02:16.973Z,17.50
2022-08-03T03:05:50.953Z,17.40
2022-08-03T03:07:33.984Z,17.40
2022-08-03T03:10:17.891Z,17.60
2022-08-03T03:12:45.367Z,17.60
2022-08-03T03:15:12.297Z,17.60
2022-08-03T03:17:39.435Z,17.70
2022-08-03T03:20:07.484Z,17.60
2022-08-03T03:22:34.703Z,17.60
2022-08-03T03:25:02.313Z,17.60
2022-08-03T03:27:29.554Z,17.70
2022-08-03T03:29:57.834Z,17.80
2022-08-03T03:32:26.218Z,17.90
2022-08-03T03:34:54.074Z,17.90
2022-08-03T03:37:20.718Z,17.90
2022-08-03T03:39:47.345Z,17.80
2022-08-03T03:42:14.221Z,17.90
2022-08-03T03:44:41.063Z,17.90
2022-08-03T03:47:07.876Z,17.90
2022-08-03T03:49:34.725Z,18.00
2022-08-03T03:52:01.398Z,18.10
2022-08-03T03:54:43.257Z,18.10
2022-08-03T03:57:13.003Z,18.10
2022-08-03T03:59:42.187Z,18.30
2022-08-03T04:02:10.555Z,18.20
2022-08-03T04:04:57.009Z,18.20
2022-08-03T04:07:43.898Z,18.20
2022-08-03T04:10:38.965Z,18.20
2022-08-03T04:13:10.047Z,18.20
2022-08-03T04:15:39.438Z,18.20
2022-08-03T04:18:08.834Z,18.20
2022-08-03T04:20:38.550Z,18.10
2022-08-03T04:23:13.656Z,18.20
2022-08-03T04:25:43.859Z,18.30
2022-08-03T04:28:30.756Z,18.30
2022-08-03T04:31:00.727Z,18.30
2022-08-03T04:33:29.726Z,18.30
2022-08-03T04:36:02.646Z,18.40
2022-08-03T04:38:32.916Z,18.40
2022-08-03T04:41:00.954Z,18.40
2022-08-03T04:43:29.303Z,18.50
2022-08-03T04:45:57.059Z,18.50
2022-08-03T04:48:24.449Z,18.50
2022-08-03T04:50:51.673Z,18.40
2022-08-03T04:53:18.294Z,18.40
2022-08-03T04:55:46.727Z,18.50
2022-08-03T04:58:13.322Z,18.40
2022-08-03T05:00:40.163Z,18.50
2022-08-03T05:03:20.127Z,18.70
2022-08-03T05:06:09.953Z,18.80
2022-08-03T05:08:46.219Z,18.90
2022-08-03T05:11:17.667Z,19.00
2022-08-03T05:13:45.406Z,19.10
2022-08-03T05:16:13.832Z,19.30
2022-08-03T05:18:41.976Z,19.50
2022-08-03T05:21:10.363Z,19.50
2022-08-03T05:23:37.810Z,19.80
2022-08-03T05:26:04.462Z,19.80
2022-08-03T05:28:31.142Z,19.90
2022-08-03T05:30:57.916Z,20.00
2022-08-03T05:33:25.455Z,20.10
2022-08-03T05:35:57.776Z,20.30
2022-08-03T05:38:34.994Z,20.50
2022-08-03T05:41:20.244Z,20.50
2022-08-03T05:43:50.339Z,20.80
2022-08-03T05:46:18.070Z,21.00
2022-08-03T05:48:44.732Z,21.10
2022-08-03T05:51:12.131Z,21.30
2022-08-03T05:53:39.877Z,21.40
2022-08-03T05:56:14.698Z,21.60
2022-08-03T05:58:52.383Z,21.70
2022-08-03T06:01:21.738Z,21.80
2022-08-03T06:03:49.807Z,22.00
2022-08-03T06:06:17.209Z,22.10
2022-08-03T06:08:44.721Z,22.10
2022-08-03T06:11:12.855Z,22.10
2022-08-03T06:13:39.979Z,22.10
2022-08-03T06:16:06.853Z,22.10
2022-08-03T06:18:33.634Z,22.10
2022-08-03T06:21:14.978Z,22.30
2022-08-03T06:23:54.368Z,22.30
2022-08-03T06:26:26.483Z,22.40
2022-08-03T06:28:54.578Z,22.50
2022-08-03T06:31:33.078Z,22.60
2022-08-03T06:34:32.917Z,22.80
2022-08-03T06:36:50.827Z,23.00
2022-08-03T06:39:19.084Z,23.20
2022-08-03T06:41:45.666Z,23.20
2022-08-03T06:44:12.708Z,23.30
2022-08-03T06:46:39.703Z,23.50
2022-08-03T06:49:07.246Z,23.70
2022-08-03T06:52:03.742Z,23.80
2022-08-03T06:54:22.193Z,24.00
2022-08-03T06:56:48.862Z,24.40
2022-08-03T07:00:06.116Z,24.60
2022-08-03T07:02:02.366Z,24.90
2022-08-03T07:04:28.983Z,25.30
2022-08-03T07:06:55.587Z,25.70
2022-08-03T07:09:22.431Z,26.30
2022-08-03T07:11:49.100Z,26.60
2022-08-03T07:14:15.718Z,26.90
2022-08-03T07:16:42.338Z,27.10
2022-08-03T07:19:08.953Z,27.10
2022-08-03T07:21:35.539Z,27.30
2022-08-03T07:24:02.149Z,28.00
2022-08-03T07:26:28.763Z,28.00
2022-08-03T07:28:55.429Z,27.80
2022-08-03T07:31:22.150Z,27.70
2022-08-03T07:33:48.783Z,27.60
2022-08-03T07:36:15.385Z,28.10
2022-08-03T07:38:41.970Z,28.60
2022-08-03T07:41:08.562Z,29.00
2022-08-03T07:43:35.151Z,28.80
2022-08-03T07:46:01.767Z,29.30
2022-08-03T07:48:28.387Z,29.70
2022-08-03T07:50:55.000Z,29.90
2022-08-03T07:53:21.640Z,30.00
2022-08-03T07:55:48.300Z,30.10
2022-08-03T07:58:21.974Z,29.90
2022-08-03T08:00:52.889Z,30.30
2022-08-03T08:03:19.795Z,30.50
2022-08-03T08:05:46.667Z,30.40
2022-08-03T08:08:13.524Z,30.20
2022-08-03T08:10:40.331Z,30.10
2022-08-03T08:13:07.042Z,30.40
2022-08-03T08:15:33.792Z,31.00
2022-08-03T08:18:02.371Z,30.30
2022-08-03T08:20:32.087Z,30.50
2022-08-03T08:23:09.635Z,30.60
2022-08-03T08:25:53.766Z,30.80
2022-08-03T08:28:32.558Z,30.80
2022-08-03T08:31:00.297Z,30.60
2022-08-03T08:33:37.245Z,30.50
2022-08-03T08:36:15.610Z,30.40
2022-08-03T08:38:44.394Z,30.50
2022-08-03T08:41:12.599Z,30.40
2022-08-03T08:43:39.593Z,30.80
2022-08-03T08:46:08.344Z,30.70
2022-08-03T08:48:38.571Z,30.70
2022-08-03T08:51:05.981Z,31.20
2022-08-03T08:53:36.734Z,30.80
2022-08-03T08:56:05.317Z,31.50
2022-08-03T08:58:38.617Z,31.60
2022-08-03T09:01:05.661Z,31.90
2022-08-03T09:03:34.301Z,31.70
2022-08-03T09:06:02.016Z,32.10
2022-08-03T09:08:33.022Z,31.70
2022-08-03T09:11:00.139Z,32.20
2022-08-03T09:13:27.172Z,32.40
2022-08-03T09:16:13.940Z,32.80
2022-08-03T09:18:42.015Z,32.60
2022-08-03T09:21:31.160Z,32.90
2022-08-03T09:24:03.217Z,32.70
2022-08-03T09:26:31.652Z,33.40
2022-08-03T09:29:10.900Z,33.40
2022-08-03T09:31:46.203Z,33.40
2022-08-03T09:34:15.448Z,32.40
2022-08-03T09:36:43.746Z,32.60
2022-08-03T09:39:14.758Z,32.90
2022-08-03T09:41:47.127Z,33.30
2022-08-03T09:44:24.640Z,32.80
2022-08-03T09:46:55.602Z,32.50
2022-08-03T09:49:23.098Z,32.70
2022-08-03T09:52:33.568Z,33.10
2022-08-03T09:54:37.169Z,33.10
2022-08-03T09:57:04.159Z,33.50
2022-08-03T09:59:32.447Z,33.60
2022-08-03T10:02:00.455Z,33.40
2022-08-03T10:04:27.160Z,33.70
2022-08-03T10:07:10.661Z,33.80
2022-08-03T10:09:37.962Z,34.20
2022-08-03T10:12:12.776Z,34.50
2022-08-03T10:14:41.830Z,34.50
2022-08-03T10:17:09.730Z,34.70
2022-08-03T10:19:36.848Z,34.20
2022-08-03T10:22:19.083Z,34.20
2022-08-03T10:25:08.238Z,34.30
2022-08-03T10:27:41.403Z,34.50
2022-08-03T10:30:10.819Z,34.20
2022-08-03T10:32:48.638Z,34.50
2022-08-03T10:35:20.672Z,34.60
2022-08-03T10:38:07.079Z,34.90
2022-08-03T10:40:52.649Z,34.70
2022-08-03T10:43:27.606Z,34.30
2022-08-03T10:45:56.004Z,35.00
2022-08-03T10:48:23.067Z,34.80
2022-08-03T10:50:50.632Z,35.10
2022-08-03T10:53:33.482Z,34.10
2022-08-03T10:56:19.679Z,33.70
2022-08-03T10:59:03.883Z,34.40
2022-08-03T11:02:00.183Z,35.30
2022-08-03T11:04:29.282Z,35.60
2022-08-03T11:07:19.370Z,35.70
2022-08-03T11:09:49.110Z,35.00
2022-08-03T11:12:31.740Z,34.70
2022-08-03T11:15:08.425Z,35.30
2022-08-03T11:17:46.321Z,34.90
2022-08-03T11:20:48.316Z,35.20
2022-08-03T11:23:16.433Z,34.80
2022-08-03T11:26:18.032Z,35.30
2022-08-03T11:28:47.068Z,35.60
2022-08-03T11:31:48.110Z,35.90
2022-08-03T11:34:11.940Z,35.90
2022-08-03T11:37:16.383Z,35.70
2022-08-03T11:39:45.631Z,35.70
2022-08-03T11:42:24.423Z,35.70
2022-08-03T11:44:56.737Z,36.50
2022-08-03T11:47:27.051Z,36.90
2022-08-03T11:50:00.532Z,35.70
2022-08-03T11:52:33.646Z,36.50
2022-08-03T11:55:00.641Z,36.00
2022-08-03T11:59:11.284Z,35.90
2022-08-03T12:00:30.171Z,36.90
2022-08-03T12:03:05.936Z,37.80
2022-08-03T12:05:42.400Z,37.60
2022-08-03T12:08:31.242Z,37.70
2022-08-03T12:11:01.115Z,37.60
2022-08-03T12:14:45.267Z,37.70
2022-08-03T12:16:24.082Z,37.80
2022-08-03T12:19:06.533Z,37.40
2022-08-03T12:21:33.544Z,38.00
2022-08-03T12:24:04.516Z,37.70
2022-08-03T12:26:58.261Z,37.90
2022-08-03T12:29:26.226Z,38.40
2022-08-03T12:31:52.899Z,38.50
2022-08-03T12:34:19.663Z,38.40
2022-08-03T12:36:55.983Z,39.30
2022-08-03T12:39:30.983Z,39.90
2022-08-03T12:41:57.850Z,40.20
2022-08-03T12:44:32.779Z,39.90
2022-08-03T12:47:00.382Z,39.60
2022-08-03T12:49:27.227Z,39.20
2022-08-03T12:51:53.821Z,38.50
2022-08-03T12:54:24.711Z,39.30
2022-08-03T12:57:08.246Z,39.80
2022-08-03T12:59:40.821Z,39.20
2022-08-03T13:02:28.605Z,39.00
2022-08-03T13:04:55.642Z,40.00
2022-08-03T13:07:23.164Z,40.20
2022-08-03T13:09:55.359Z,39.70
2022-08-03T13:12:26.983Z,39.20
2022-08-03T13:14:56.485Z,38.80
2022-08-03T13:17:23.314Z,39.20
2022-08-03T13:19:50.393Z,39.30
2022-08-03T13:22:22.307Z,39.40
2022-08-03T13:24:51.362Z,40.00
2022-08-03T13:28:02.707Z,40.60
2022-08-03T13:30:05.467Z,40.60
2022-08-03T13:32:33.106Z,41.10
2022-08-03T13:34:59.921Z,40.20
2022-08-03T13:37:26.988Z,39.60
2022-08-03T13:39:59.662Z,38.90
2022-08-03T13:42:33.915Z,39.10
2022-08-03T13:45:03.130Z,38.50
2022-08-03T13:47:29.983Z,38.70
2022-08-03T13:50:01.806Z,38.50
2022-08-03T13:52:30.825Z,38.70
2022-08-03T13:54:57.468Z,39.40
2022-08-03T13:58:03.970Z,39.40
2022-08-03T14:00:12.007Z,40.30
2022-08-03T14:02:38.743Z,41.60
2022-08-03T14:05:05.930Z,40.10
2022-08-03T14:07:32.506Z,39.80
2022-08-03T14:09:59.090Z,39.40
2022-08-03T14:12:25.701Z,39.80
2022-08-03T14:14:52.371Z,39.10
2022-08-03T14:17:19.411Z,40.40
2022-08-03T14:19:53.460Z,40.30
2022-08-03T14:22:21.601Z,40.00
2022-08-03T14:24:49.176Z,39.70
2022-08-03T14:27:16.333Z,39.30
2022-08-03T14:29:42.993Z,39.20
2022-08-03T14:32:13.168Z,38.80
2022-08-03T14:34:40.750Z,38.20
2022-08-03T14:37:07.743Z,38.70
2022-08-03T14:42:21.437Z,40.00
2022-08-03T14:44:48.073Z,39.20
2022-08-03T14:47:14.947Z,40.00
2022-08-03T14:50:38.922Z,39.60
2022-08-03T14:52:28.637Z,39.60
2022-08-03T14:54:55.277Z,39.80
2022-08-03T14:57:22.227Z,40.20
2022-08-03T14:59:56.793Z,39.80
2022-08-03T15:02:25.152Z,40.10
2022-08-03T15:04:52.474Z,41.20
2022-08-03T15:07:20.312Z,40.70
2022-08-03T15:09:47.278Z,40.80
2022-08-03T15:12:13.966Z,40.90
2022-08-03T15:14:40.630Z,40.50
2022-08-03T15:17:07.508Z,40.70
2022-08-03T15:20:02.917Z,40.10
2022-08-03T15:22:25.412Z,40.40
2022-08-03T15:25:02.699Z,41.00
2022-08-03T15:27:29.343Z,41.90
2022-08-03T15:30:05.630Z,40.90
2022-08-03T15:32:34.636Z,40.60
2022-08-03T15:35:02.019Z,40.40
2022-08-03T15:37:28.688Z,40.20
2022-08-03T15:39:59.414Z,39.60
2022-08-03T15:42:29.110Z,39.40
2022-08-03T15:44:55.789Z,39.20
2022-08-03T15:47:22.699Z,39.60
2022-08-03T15:49:49.562Z,40.20
2022-08-03T15:52:16.248Z,40.60
2022-08-03T15:54:43.031Z,40.00
2022-08-03T15:57:09.721Z,39.70
2022-08-03T15:59:36.543Z,39.50
2022-08-03T16:02:03.587Z,38.90
2022-08-03T16:04:30.238Z,38.60
2022-08-03T16:06:56.857Z,38.00
2022-08-03T16:09:42.086Z,38.30
2022-08-03T16:12:15.704Z,38.40
2022-08-03T16:14:52.318Z,38.80
2022-08-03T16:17:19.595Z,39.00
2022-08-03T16:19:46.493Z,39.30
2022-08-03T16:22:13.425Z,39.70
2022-08-03T16:24:41.323Z,39.90
2022-08-03T16:27:17.509Z,40.10
2022-08-03T16:29:54.882Z,40.10
2022-08-03T16:32:21.598Z,39.60
2022-08-03T16:34:48.386Z,39.50
2022-08-03T16:37:37.766Z,39.10
2022-08-03T16:40:02.928Z,39.00
2022-08-03T16:42:29.661Z,39.40
2022-08-03T16:44:56.295Z,39.90
2022-08-03T16:47:23.167Z,40.10
2022-08-03T16:49:54.266Z,39.60
2022-08-03T16:52:23.619Z,39.20
2022-08-03T16:54:53.168Z,39.30
2022-08-03T16:57:56.407Z,39.60
2022-08-03T17:00:10.037Z,39.70
2022-08-03T17:02:37.183Z,39.80
2022-08-03T17:05:04.757Z,39.50
2022-08-03T17:07:31.541Z,39.50
2022-08-03T17:09:58.913Z,39.90
2022-08-03T17:12:26.702Z,40.00
2022-08-03T17:14:54.315Z,39.90
2022-08-03T17:17:47.584Z,39.90
2022-08-03T17:20:20.031Z,39.80
2022-08-03T17:23:05.761Z,40.00
2022-08-03T17:26:02.497Z,40.00
2022-08-03T17:28:51.905Z,40.00
2022-08-03T17:31:31.366Z,40.60
2022-08-03T17:34:01.161Z,40.80
2022-08-03T17:39:17.213Z,40.80
2022-08-03T17:41:50.018Z,40.50
2022-08-03T17:44:33.157Z,40.40
2022-08-03T17:47:06.441Z,39.80
2022-08-03T17:49:40.001Z,39.60
2022-08-03T17:52:17.851Z,39.60
2022-08-03T17:55:57.324Z,39.80
2022-08-03T17:58:17.104Z,39.30
2022-08-03T18:01:58.245Z,39.20
2022-08-03T18:03:59.407Z,39.30
2022-08-03T18:06:31.132Z,39.30
2022-08-03T18:08:59.988Z,39.20
2022-08-03T18:11:35.337Z,39.30
2022-08-03T18:14:36.966Z,39.20
2022-08-03T18:17:10.550Z,38.90
2022-08-03T18:20:02.124Z,38.70
2022-08-03T18:22:27.098Z,38.30
2022-08-03T18:24:55.955Z,37.80
2022-08-03T18:27:23.398Z,37.20
2022-08-03T18:30:12.162Z,36.40
2022-08-03T18:32:39.255Z,35.80
2022-08-03T18:35:07.086Z,35.20
2022-08-03T18:37:51.926Z,34.60
2022-08-03T18:40:20.844Z,34.10
2022-08-03T18:42:51.079Z,33.80
2022-08-03T18:45:56.153Z,33.40
2022-08-03T18:48:31.413Z,33.10
2022-08-03T18:51:06.824Z,32.70
2022-08-03T18:54:11.904Z,32.40
2022-08-03T18:57:01.824Z,32.10
2022-08-03T18:59:52.781Z,32.00
2022-08-03T19:02:33.920Z,31.80
2022-08-03T19:05:08.873Z,31.50
2022-08-03T19:07:38.096Z,31.30
2022-08-03T19:10:06.209Z,31.00
2022-08-03T19:12:50.244Z,30.80
2022-08-03T19:15:21.219Z,30.50
2022-08-03T19:20:54.675Z,29.90
2022-08-03T19:23:24.977Z,29.60
2022-08-03T19:25:53.062Z,29.30
2022-08-03T19:28:22.041Z,29.20
2022-08-03T19:30:59.926Z,29.00
2022-08-03T19:33:33.157Z,28.80
2022-08-03T19:36:26.445Z,28.60
2022-08-03T19:38:55.485Z,28.30
2022-08-03T19:41:27.351Z,28.20
2022-08-03T19:44:04.411Z,28.10
2022-08-03T19:46:33.801Z,27.90
2022-08-03T19:49:14.634Z,27.70
2022-08-03T19:52:00.615Z,27.50
2022-08-03T19:54:45.498Z,27.30
2022-08-03T19:57:27.010Z,27.10
2022-08-03T19:59:54.986Z,26.90
2022-08-03T20:02:26.173Z,26.80
2022-08-03T20:04:54.932Z,26.60
2022-08-03T20:07:22.946Z,26.50
2022-08-03T20:09:54.565Z,26.40
2022-08-03T20:12:28.744Z,26.30
2022-08-03T20:14:59.333Z,26.10
2022-08-03T20:17:55.343Z,26.00
2022-08-03T20:20:23.983Z,26.00
2022-08-03T20:22:53.005Z,25.80
2022-08-03T20:25:37.538Z,25.70
2022-08-03T20:28:14.908Z,25.60
2022-08-03T20:30:44.322Z,25.50
2022-08-03T20:33:19.027Z,25.40
2022-08-03T20:36:00.559Z,25.30
2022-08-03T20:38:27.466Z,25.20
2022-08-03T20:40:54.470Z,25.10
2022-08-03T20:43:21.730Z,25.00
2022-08-03T20:45:59.918Z,25.00
2022-08-03T20:48:36.649Z,24.80
2022-08-03T20:51:19.543Z,24.70
2022-08-03T20:53:59.893Z,24.60
2022-08-03T20:56:32.417Z,24.50
2022-08-03T20:59:05.616Z,24.50
2022-08-03T21:01:36.513Z,24.30
2022-08-03T21:04:09.245Z,24.30
2022-08-03T21:06:41.619Z,24.20
2022-08-03T21:09:19.504Z,24.20
2022-08-03T21:11:51.622Z,24.10
2022-08-03T21:13:01.992Z,30.20
2022-08-03T21:15:01.341Z,24.00
2022-08-03T21:17:40.373Z,23.80
2022-08-03T21:20:09.392Z,23.80
2022-08-03T21:22:39.075Z,23.90
2022-08-03T21:25:09.136Z,23.80
2022-08-03T21:27:36.821Z,23.80
2022-08-03T21:30:07.854Z,23.70
2022-08-03T21:32:34.811Z,23.60
2022-08-03T21:35:02.047Z,23.50
2022-08-03T21:37:28.941Z,23.50
2022-08-03T21:39:56.516Z,23.40
2022-08-03T21:42:23.891Z,23.30
2022-08-03T21:44:53.946Z,23.20
2022-08-03T21:47:24.830Z,23.10
2022-08-03T21:50:08.373Z,23.10
2022-08-03T21:52:44.404Z,23.00
2022-08-03T21:55:18.640Z,23.00
2022-08-03T21:57:53.355Z,23.00
2022-08-03T22:00:22.804Z,23.00
2022-08-03T22:02:55.601Z,23.00
2022-08-03T22:05:42.662Z,22.90
2022-08-03T22:08:11.205Z,22.70
2022-08-03T22:10:38.105Z,22.60
2022-08-03T22:13:04.772Z,22.50
2022-08-03T22:15:32.283Z,22.60
2022-08-03T22:18:03.231Z,22.50
2022-08-03T22:20:30.199Z,22.40
2022-08-03T22:23:00.458Z,22.40
2022-08-03T22:25:30.438Z,22.30
2022-08-03T22:28:00.644Z,22.30
2022-08-03T22:30:27.630Z,22.20
2022-08-03T22:32:56.141Z,22.20
2022-08-03T22:35:24.845Z,22.20
2022-08-03T22:37:54.378Z,22.20
2022-08-03T22:40:21.064Z,22.20
2022-08-03T22:42:52.309Z,22.20
2022-08-03T22:46:06.193Z,22.20
2022-08-03T22:48:08.056Z,22.10
2022-08-03T22:50:35.021Z,22.10
2022-08-03T22:53:02.082Z,22.10
2022-08-03T22:55:28.950Z,22.10
2022-08-03T22:57:55.887Z,22.10
2022-08-03T23:00:24.372Z,22.10
2022-08-03T23:02:53.614Z,22.00
2022-08-03T23:06:00.280Z,22.00
2022-08-03T23:08:14.512Z,21.90
2022-08-03T23:10:46.655Z,21.90
2022-08-03T23:13:16.302Z,21.80
2022-08-03T23:15:51.081Z,21.80
2022-08-03T23:18:20.691Z,21.80
2022-08-03T23:20:51.039Z,21.80
2022-08-03T23:23:19.825Z,21.80
2022-08-03T23:25:49.395Z,21.90
2022-08-03T23:28:16.382Z,21.80
2022-08-03T23:30:47.620Z,21.80
2022-08-03T23:33:16.123Z,21.80
2022-08-03T23:36:29.848Z,21.70
2022-08-03T23:38:47.556Z,21.70
2022-08-03T23:41:16.470Z,21.60
2022-08-03T23:43:51.966Z,21.60
2022-08-03T23:46:22.545Z,21.50
2022-08-03T23:48:50.111Z,21.40
2022-08-03T23:51:34.782Z,21.30
2022-08-03T23:54:17.930Z,21.20
2022-08-03T23:57:03.290Z,21.10
